Terminal Aerodrome Forecast
Issued by NWS

Home | Current Version | Previous Version | Graphics & Text | Print | Product List | Glossary On
Versions: 1 2 3 4 5 6 7 8 9 10 11 12 13 14 15 16 17 18 19
000
FTUS43 KLSX 281725
TAFSUS
TAF
KSUS 281725Z 2818/2918 32006KT P6SM VCTS BKN050CB
     FM282200 32004KT P6SM SCT050 SCT250
      TEMPO 2909/2913 4SM BR
     FM291500 30006KT P6SM BKN040=

USA.gov is the U.S. government's official web portal to all federal, state and local government web resources and services.